Flight Track Log - Related Links

Times and Time Zones

All times are in EST time to prevent confusion due to time zone crossing. See the SWA830 flight status page for this flight to view local times or setup timezone preferences in your user account.

Time Position Orientation Groundspeed Altitude Reporting Facility
EST Latitude Longitude Course Direction KTS MPH feet Rate Location/Type
Sat 05:57:53 PM 44.8833 -93.2667 268° West 176 203 2,400  Level Minneapolis TRACON
Sat 05:58:29 PM 44.8828 -93.2942 268° West 200 230 3,200 2,536 Climbing Minneapolis Center
Sat 05:59:30 PM 44.8144 -93.3594 214° Southwest 270 311 6,500 3,366 Climbing Minneapolis Center
Sat 06:00:32 PM 44.7547 -93.4181 215° Southwest 269 310 10,100 2,293 Climbing Minneapolis Center
Sat 06:01:33 PM 44.7128 -93.5136 238° Southwest 294 338 11,200 1,967 Climbing Minneapolis Center
Sat 06:02:34 PM 44.6619 -93.6261 238° Southwest 340 391 14,100 2,732 Climbing Minneapolis Center
Sat 06:03:36 PM 44.6103 -93.7406 238° Southwest 349 402 16,800 2,439 Climbing Minneapolis Center
Sat 06:04:37 PM 44.5589 -93.8544 238° Southwest 348 400 19,100 1,869 Climbing Minneapolis Center
Sat 06:05:38 PM 44.5047 -93.9722 237° Southwest 357 411 20,600 2,488 Climbing Minneapolis Center
Sat 06:06:40 PM 44.4375 -94.1175 237° Southwest 369 425 24,200 3,171 Climbing Minneapolis Center
Sat 06:07:41 PM 44.3900 -94.2228 238° Southwest 330 380 27,100 2,293 Climbing Minneapolis Center
Sat 06:08:43 PM 44.3492 -94.3269 241° Southwest 311 358 28,900 1,268 Climbing Minneapolis Center
Sat 06:09:44 PM 44.3072 -94.4339 241° Southwest 313 360 29,700 829 Climbing Minneapolis Center
Sat 06:10:46 PM 44.2608 -94.5469 240° Southwest 331 381 30,600 927 Climbing Minneapolis Center
Sat 06:11:47 PM 44.2083 -94.6792 241° Southwest 344 396 31,600 927 Climbing Minneapolis Center
Sat 06:12:49 PM 44.1600 -94.7978 240° Southwest 351 404 32,500 976 Climbing Minneapolis Center
Sat 06:13:50 PM 44.1119 -94.9189 241° Southwest 356 410 33,600 1,131 Climbing Minneapolis Center
Sat 06:14:51 PM 44.0633 -95.0375 240° Southwest 354 407 34,800 1,024 Climbing Minneapolis Center
Sat 06:15:53 PM 44.0156 -95.1533 240° Southwest 348 400 35,700 581 Climbing Minneapolis Center
Sat 06:16:55 PM 43.9678 -95.2706 241° Southwest 348 400 36,000 146 Climbing Minneapolis Center
Sat 06:17:56 PM 43.9183 -95.3886 240° Southwest 351 404 36,000  Level Minneapolis Center
Sat 06:18:58 PM 43.8683 -95.5075 240° Southwest 354 407 36,000  Level Minneapolis Center
Sat 06:19:59 PM 43.8183 -95.6281 240° Southwest 358 412 36,000  Level Minneapolis Center
Sat 06:21:00 PM 43.7575 -95.7717 240° Southwest 360 414 36,000  Level Minneapolis Center
Sat 06:22:02 PM 43.7075 -95.8917 240° Southwest 359 413 36,000  Level Minneapolis Center
Sat 06:23:03 PM 43.6561 -96.0128 240° Southwest 363 418 36,000  Level Minneapolis Center
Sat 06:24:05 PM 43.6047 -96.1328 239° Southwest 362 417 36,000  Level Minneapolis Center
Sat 06:25:06 PM 43.5528 -96.2536 239° Southwest 364 419 36,000  Level Minneapolis Center
Sat 06:26:08 PM 43.5019 -96.3750 240° Southwest 365 420 36,000  Level Minneapolis Center
Sat 06:27:09 PM 43.4494 -96.4956 239° Southwest 365 420 36,000  Level Minneapolis Center
Sat 06:28:10 PM 43.3961 -96.6158 239° Southwest 367 422 36,000  Level Minneapolis Center
Sat 06:29:12 PM 43.3439 -96.7394 240° Southwest 371 427 36,000  Level Minneapolis Center
Sat 06:30:13 PM 43.2906 -96.8644 240° Southwest 377 434 36,000  Level Minneapolis Center
Sat 06:31:15 PM 43.2261 -97.0083 238° Southwest 372 428 36,000  Level Minneapolis Center
Sat 06:32:16 PM 43.1733 -97.1281 239° Southwest 369 425 36,000  Level Minneapolis Center
Sat 06:33:18 PM 43.1183 -97.2494 238° Southwest 373 429 36,000  Level Minneapolis Center
Sat 06:34:19 PM 43.0658 -97.3717 240° Southwest 374 430 36,000  Level Minneapolis Center
Sat 06:35:21 PM 43.0108 -97.4911 238° Southwest 373 429 36,000  Level Minneapolis Center
Sat 06:36:22 PM 42.9586 -97.6147 240° Southwest 375 432 36,000  Level Minneapolis Center
Sat 06:37:24 PM 42.9042 -97.7358 238° Southwest 374 430 36,000  Level Minneapolis Center
Sat 06:38:25 PM 42.8503 -97.8578 239° Southwest 376 433 36,000  Level Minneapolis Center
Sat 06:39:27 PM 42.7833 -98.0028 238° Southwest 377 434 36,000  Level Minneapolis Center
Sat 06:40:29 PM 42.7264 -98.1233 237° Southwest 378 435 36,000  Level Minneapolis Center
Sat 06:41:30 PM 42.6736 -98.2433 239° Southwest 382 440 36,000  Level Minneapolis Center
Sat 06:42:32 PM 42.6181 -98.3658 238° Southwest 382 440 36,000  Level Minneapolis Center
Sat 06:43:34 PM 42.5622 -98.4875 238° Southwest 380 437 36,000  Level Minneapolis Center
Sat 06:44:35 PM 42.5053 -98.6097 238° Southwest 383 441 36,000  Level Minneapolis Center
Sat 06:45:37 PM 42.4503 -98.7306 238° Southwest 380 437 36,000  Level Minneapolis Center
Sat 06:46:38 PM 42.3844 -98.8775 239° Southwest 380 437 36,000  Level Minneapolis Center
Sat 06:47:40 PM 42.3303 -98.9989 239° Southwest 378 435 36,000  Level Minneapolis Center
Sat 06:48:41 PM 42.2758 -99.1200 239° Southwest 378 435 36,000  Level Minneapolis Center
Sat 06:49:45 PM 42.2211 -99.2411 239° Southwest 377 434 36,000  Level Denver Center
Sat 06:50:47 PM 42.1658 -99.3608 238° Southwest 377 434 36,000  Level Denver Center
Sat 06:51:48 PM 42.1106 -99.4828 239° Southwest 379 436 36,000  Level Denver Center
Sat 06:52:50 PM 42.0444 -99.6272 238° Southwest 379 436 36,000  Level Denver Center
Sat 06:53:52 PM 41.9869 -99.7525 238° Southwest 381 438 36,000  Level Denver Center
Sat 06:54:54 PM 41.9339 -99.8681 238° Southwest 382 440 36,000  Level Denver Center
Sat 06:55:55 PM 41.8803 -99.9853 238° Southwest 383 441 36,000  Level Denver Center
Sat 06:56:57 PM 41.8167 -100.1206 238° Southwest 385 443 36,000  Level Denver Center
Sat 06:57:59 PM 41.7625 -100.2367 238° Southwest 384 442 36,000  Level Denver Center
Sat 06:59:01 PM 41.6986 -100.3703 237° Southwest 383 441 36,000  Level Denver Center
Sat 07:00:03 PM 41.6436 -100.4878 238° Southwest 388 447 36,000  Level Denver Center
Sat 07:01:04 PM 41.5792 -100.6233 238° Southwest 387 445 36,000  Level Denver Center
Sat 07:02:06 PM 41.5258 -100.7392 238° Southwest 386 444 36,000  Level Denver Center
Sat 07:03:08 PM 41.4808 -100.8861 248° West 384 442 36,000  Level Denver Center
Sat 07:04:10 PM 41.4428 -101.0108 248° West 382 440 36,000  Level Denver Center
Sat 07:05:11 PM 41.3983 -101.1550 248° West 380 437 36,000  Level Denver Center
Sat 07:06:25 PM 41.3611 -101.2803 248° West 381 438 36,000  Level Denver Center
Sat 07:07:27 PM 41.2981 -101.4369 242° Southwest 379 436 36,000  Level Denver Center
Sat 07:08:29 PM 41.2447 -101.5511 238° Southwest 380 437 36,000  Level Denver Center
Sat 07:09:30 PM 41.1828 -101.6856 239° Southwest 383 441 36,000  Level Denver Center
Sat 07:10:32 PM 41.1292 -101.8008 238° Southwest 383 441 36,000  Level Denver Center
Sat 07:11:34 PM 41.0661 -101.9358 238° Southwest 386 444 36,000  Level Denver Center
Sat 07:12:35 PM 41.0117 -102.0506 238° Southwest 386 444 36,000  Level Denver Center
Sat 07:13:37 PM 40.9575 -102.1658 238° Southwest 386 444 36,000  Level Denver Center
Sat 07:14:39 PM 40.8922 -102.3000 237° Southwest 389 448 36,000  Level Denver Center
Sat 07:15:40 PM 40.8389 -102.4144 238° Southwest 385 443 36,000  Level Denver Center
Sat 07:16:42 PM 40.7750 -102.5483 238° Southwest 385 443 36,000  Level Denver Center
Sat 07:17:43 PM 40.7197 -102.6628 238° Southwest 387 445 36,000  Level Denver Center
Sat 07:18:45 PM 40.6661 -102.7750 238° Southwest 387 445 36,000  Level Denver Center
Sat 07:19:47 PM 40.5961 -102.9175 237° Southwest 388 447 36,000  Level Denver Center
Sat 07:20:48 PM 40.5392 -103.0378 238° Southwest 389 448 36,000 -49 Level Denver Center
Sat 07:21:50 PM 40.4806 -103.1553 237° Southwest 385 443 35,900 -1,790 Descending Denver Center
Sat 07:22:52 PM 40.4239 -103.2728 238° Southwest 382 440 32,300 -2,927 Descending Denver Center
Sat 07:23:53 PM 40.3642 -103.3931 237° Southwest 392 451 29,900 -2,133 Descending Denver Center
Sat 07:25:07 PM 40.3078 -103.5069 237° Southwest 375 432 27,500 -2,206 Descending Denver Center
Sat 07:26:09 PM 40.2442 -103.6378 238° Southwest 354 407 24,900 -2,098 Descending Denver Center
Sat 07:27:10 PM 40.2169 -103.7700 255° West 335 386 23,200 -1,415 Descending Denver Center
Sat 07:28:12 PM 40.1883 -103.8811 251° West 299 344 22,000 -1,235 Descending Denver Center
Sat 07:29:26 PM 40.1461 -103.9714 239° Southwest 291 335 20,400 -1,556 Descending Denver Center
Sat 07:30:27 PM 40.0969 -104.0769 239° Southwest 274 315 18,500 -1,659 Descending Denver Center
Sat 07:31:29 PM 40.0589 -104.1594 239° Southwest 264 304 17,000 -1,403 Descending Denver Center
Sat 07:32:31 PM 40.0194 -104.2428 238° Southwest 249 287 15,600 -976 Descending Denver Center
Sat 07:33:32 PM 39.9831 -104.3214 239° Southwest 253 291 15,000 -244 Descending Denver Center
Sat 07:34:34 PM 39.9467 -104.3989 239° Southwest 251 289 15,100 47 Climbing Denver Center
Sat 07:35:40 PM 39.9000 -104.4833 234° Southwest 255 293 15,100  Level Denver TRACON
Sat 07:36:37 PM 39.8350 -104.5003 191° South 276 318 15,100 -605 Level Denver Center
Sat 07:37:39 PM 39.7578 -104.5025 181° South 276 318 13,900 -1,463 Descending Denver Center
Sat 07:38:40 PM 39.6822 -104.5044 181° South 271 312 12,100 -1,756 Descending Denver Center
Sat 07:39:42 PM 39.6017 -104.5050 180° South 267 307 10,300 -1,500 Descending Denver Center
Sat 07:40:44 PM 39.5300 -104.5053 180° South 260 299 9,000 -927 Descending Denver Center
Sat 07:41:45 PM 39.4881 -104.5583 224° Southwest 245 282 8,400 -488 Descending Denver Center
Sat 07:42:47 PM 39.5067 -104.6353 287° West 236 272 8,000 -145 Descending Denver Center
Sat 07:43:49 PM 39.5658 -104.6450 353° North 222 255 8,100  Climbing Denver Center
Sat 07:44:50 PM 39.6169 -104.6447 360° North 188 216 8,000 -49 Descending Denver Center
Sat 07:45:52 PM 39.6700 -104.6433 North 178 205 8,000 -97 Level Denver Center
Sat 07:46:54 PM 39.7192 -104.6431 360° North 177 204 7,800 -634 Descending Denver Center
Sat 07:47:55 PM 39.7708 -104.6431 360° North 174 200 6,700 -927 Descending Denver Center
Sat 07:48:57 PM 39.8100 -104.6414 North 144 166 5,900 -634 Descending Denver Center
Sat 07:49:58 PM 39.8458 -104.6414 360° North 127 146 5,400 -492 Descending Denver Center
Sat 07:51:00 PM 39.8500 -104.6667 339° North  Level FlightAware Approximate
Sat 07:58:00 PM 39.8617 -104.6732 339° North  Level Estimated

Login

Don't have an account? Register now (free) for customized features, flight alerts, and more!